createdAt,value
2019-05-13T00:00:57.463Z,100572.86
2019-05-13T00:03:26.880Z,100568.52
2019-05-13T00:05:55.959Z,100570.61
2019-05-13T00:08:25.344Z,100574.95
2019-05-13T00:10:54.450Z,100565.58
2019-05-13T00:13:23.832Z,100565.08
2019-05-13T00:15:54.336Z,100569.33
2019-05-13T00:18:23.743Z,100565.84
2019-05-13T00:20:54.201Z,100564.41
2019-05-13T00:23:23.538Z,100559.11
2019-05-13T00:25:54.576Z,100559.58
2019-05-13T00:28:24.116Z,100556.55
2019-05-13T00:30:54.290Z,100570.02
2019-05-13T00:33:24.383Z,100565.67
2019-05-13T00:35:53.609Z,100566.33
2019-05-13T00:38:24.599Z,100564.37
2019-05-13T00:40:54.553Z,100565.79
2019-05-13T00:43:24.509Z,100563.33
2019-05-13T00:45:53.899Z,100557.20
2019-05-13T00:48:23.455Z,100552.45
2019-05-13T00:50:54.510Z,100556.53
2019-05-13T00:53:23.853Z,100549.27
2019-05-13T00:55:53.653Z,100551.55
2019-05-13T00:58:24.134Z,100547.20
2019-05-13T01:00:54.635Z,100548.72
2019-05-13T01:03:26.305Z,100542.78
2019-05-13T01:05:55.560Z,100540.69
2019-05-13T01:08:25.912Z,100547.23
2019-05-13T01:10:55.168Z,100546.23
2019-05-13T01:13:43.188Z,100537.14
2019-05-13T01:16:13.895Z,100533.69
2019-05-13T01:18:43.252Z,100525.87
2019-05-13T01:21:13.323Z,100526.70
2019-05-13T01:23:43.859Z,100517.42
2019-05-13T01:26:14.194Z,100520.38
2019-05-13T01:28:43.797Z,100511.09
2019-05-13T01:31:13.314Z,100508.84
2019-05-13T01:33:44.515Z,100508.25
2019-05-13T01:36:13.565Z,100505.97
2019-05-13T01:38:43.612Z,100495.63
2019-05-13T01:41:13.639Z,100494.80
2019-05-13T01:43:44.100Z,100489.00
2019-05-13T01:46:13.582Z,100493.38
2019-05-13T01:48:44.232Z,100489.00
2019-05-13T01:51:14.362Z,100485.42
2019-05-13T01:53:44.172Z,100486.75
2019-05-13T01:56:14.242Z,100477.07
2019-05-13T01:58:44.945Z,100481.45
2019-05-13T02:01:14.773Z,100481.81
2019-05-13T02:03:44.356Z,100478.20
2019-05-13T02:06:14.234Z,100481.81
2019-05-13T02:08:44.056Z,100477.84
2019-05-13T02:11:13.409Z,100479.26
2019-05-13T02:13:44.671Z,100491.19
2019-05-13T02:16:14.557Z,100484.20
2019-05-13T02:18:44.398Z,100482.38
2019-05-13T02:21:13.954Z,100483.70
2019-05-13T02:23:44.346Z,100486.84
2019-05-13T02:26:13.730Z,100479.26
2019-05-13T02:28:43.606Z,100476.15
2019-05-13T02:31:18.851Z,100474.22
2019-05-13T02:33:43.717Z,100478.11
2019-05-13T02:36:13.513Z,100482.08
2019-05-13T02:38:43.009Z,100478.20
2019-05-13T02:41:13.357Z,100489.17
2019-05-13T02:43:45.335Z,100486.52
2019-05-13T02:46:14.320Z,100485.97
2019-05-13T02:48:43.405Z,100484.54
2019-05-13T02:51:12.668Z,100491.17
2019-05-13T02:53:43.717Z,100492.59
2019-05-13T02:56:12.402Z,100491.83
2019-05-13T02:58:42.837Z,100490.14
2019-05-13T03:01:12.674Z,100489.17
2019-05-13T03:03:44.423Z,100487.66
2019-05-13T03:06:14.391Z,100494.55
2019-05-13T03:08:49.461Z,100496.05
2019-05-13T03:11:14.390Z,100490.08
2019-05-13T03:13:43.555Z,100499.80
2019-05-13T03:16:27.447Z,100496.72
2019-05-13T03:18:56.497Z,100494.04
2019-05-13T03:21:25.599Z,100501.20
2019-05-13T03:23:55.064Z,100507.04
2019-05-13T03:26:24.303Z,100498.28
2019-05-13T03:28:54.416Z,100502.93
2019-05-13T03:31:26.525Z,100508.30
2019-05-13T03:33:56.394Z,100519.64
2019-05-13T03:36:26.488Z,100519.55
2019-05-13T03:39:05.621Z,100523.33
2019-05-13T03:41:28.867Z,100528.89
2019-05-13T03:44:02.352Z,100529.63
2019-05-13T03:46:33.316Z,100531.21
2019-05-13T03:49:02.897Z,100529.52
2019-05-13T03:51:32.791Z,100538.52
2019-05-13T03:54:03.074Z,100543.22
2019-05-13T03:56:33.004Z,100537.34
2019-05-13T03:59:02.886Z,100556.56
2019-05-13T04:01:32.785Z,100557.52
2019-05-13T04:04:03.263Z,100551.52
2019-05-13T04:06:32.816Z,100556.98
2019-05-13T04:09:20.562Z,100556.88
2019-05-13T04:11:33.139Z,100563.59
2019-05-13T04:14:03.234Z,100563.23
2019-05-13T04:16:32.471Z,100567.38
2019-05-13T04:19:02.732Z,100559.41
2019-05-13T04:21:33.776Z,100568.70
2019-05-13T04:24:03.937Z,100567.75
2019-05-13T04:26:33.279Z,100568.47
2019-05-13T04:29:03.369Z,100566.11
2019-05-13T04:31:33.492Z,100557.42
2019-05-13T04:34:03.558Z,100558.91
2019-05-13T04:36:32.749Z,100553.39
2019-05-13T04:39:03.234Z,100555.55
2019-05-13T04:41:33.526Z,100550.13
2019-05-13T04:44:03.137Z,100547.36
2019-05-13T04:46:32.922Z,100539.28
2019-05-13T04:49:02.531Z,100538.83
2019-05-13T04:51:32.855Z,100530.64
2019-05-13T04:54:03.118Z,100533.09
2019-05-13T04:56:33.079Z,100533.34
2019-05-13T04:59:03.198Z,100528.64
2019-05-13T05:02:13.126Z,100521.89
2019-05-13T05:04:59.119Z,100525.77
2019-05-13T05:07:45.454Z,100523.47
2019-05-13T05:10:38.792Z,100515.59
2019-05-13T05:13:42.857Z,100506.36
2019-05-13T05:16:33.706Z,100511.63
2019-05-13T05:19:14.943Z,100505.05
2019-05-13T05:22:03.221Z,100506.73
2019-05-13T05:25:01.579Z,100505.61
2019-05-13T05:28:11.043Z,100508.93
2019-05-13T05:31:13.328Z,100511.75
2019-05-13T05:34:11.625Z,100516.65
2019-05-13T05:37:11.852Z,100515.42
2019-05-13T05:39:42.066Z,100520.22
2019-05-13T05:42:13.502Z,100522.63
2019-05-13T05:44:43.423Z,100527.08
2019-05-13T05:47:13.326Z,100520.72
2019-05-13T05:49:43.703Z,100516.50
2019-05-13T05:52:13.244Z,100525.34
2019-05-13T05:54:42.543Z,100515.77
2019-05-13T05:57:12.310Z,100521.64
2019-05-13T05:59:42.652Z,100526.40
2019-05-13T06:02:12.313Z,100531.28
2019-05-13T06:04:43.009Z,100528.11
2019-05-13T06:07:12.696Z,100526.28
2019-05-13T06:09:42.443Z,100527.59
2019-05-13T06:12:12.416Z,100525.02
2019-05-13T06:14:42.756Z,100515.07
2019-05-13T06:17:11.764Z,100518.09
2019-05-13T06:19:43.172Z,100520.87
2019-05-13T06:22:12.501Z,100520.87
2019-05-13T06:24:42.767Z,100517.12
2019-05-13T06:27:11.946Z,100517.95
2019-05-13T06:29:42.391Z,100518.68
2019-05-13T06:32:18.988Z,100523.50
2019-05-13T06:34:44.091Z,100524.44
2019-05-13T06:37:13.314Z,100520.52
2019-05-13T06:39:48.208Z,100524.27
2019-05-13T06:42:17.185Z,100525.48
2019-05-13T06:44:46.209Z,100523.55
2019-05-13T06:47:15.293Z,100517.29
2019-05-13T06:49:44.343Z,100517.79
2019-05-13T06:52:13.845Z,100512.36
2019-05-13T06:54:43.090Z,100512.14
2019-05-13T06:57:13.624Z,100508.06
2019-05-13T06:59:43.010Z,100507.50
2019-05-13T07:02:12.524Z,100506.12
2019-05-13T07:04:42.024Z,100510.08
2019-05-13T07:07:16.685Z,100507.19
2019-05-13T07:09:42.886Z,100502.47
2019-05-13T07:12:12.076Z,100500.52
2019-05-13T07:14:42.022Z,100498.67
2019-05-13T07:17:12.308Z,100493.47
2019-05-13T07:19:42.349Z,100490.04
2019-05-13T07:22:13.317Z,100486.59
2019-05-13T07:24:42.507Z,100490.64
2019-05-13T07:27:12.307Z,100489.94
2019-05-13T07:29:42.504Z,100490.03
2019-05-13T07:32:12.108Z,100483.75
2019-05-13T07:34:43.820Z,100477.64
2019-05-13T07:37:13.095Z,100480.28
2019-05-13T07:39:42.155Z,100473.79
2019-05-13T07:42:12.359Z,100475.22
2019-05-13T07:44:41.905Z,100468.38
2019-05-13T07:47:11.751Z,100471.27
2019-05-13T07:49:42.103Z,100465.92
2019-05-13T07:52:12.028Z,100465.62
2019-05-13T07:54:41.949Z,100464.80
2019-05-13T07:57:12.263Z,100456.07
2019-05-13T07:59:42.049Z,100456.88
2019-05-13T08:02:12.608Z,100448.55
2019-05-13T08:04:42.239Z,100453.59
2019-05-13T08:07:12.180Z,100444.16
2019-05-13T08:09:42.380Z,100446.31
2019-05-13T08:12:14.338Z,100441.95
2019-05-13T08:14:43.590Z,100440.52
2019-05-13T08:17:13.275Z,100445.23
2019-05-13T08:19:44.671Z,100444.79
2019-05-13T08:22:14.093Z,100448.56
2019-05-13T08:24:44.172Z,100446.66
2019-05-13T08:27:13.439Z,100440.11
2019-05-13T08:29:42.765Z,100440.30
2019-05-13T08:32:11.716Z,100436.44
2019-05-13T08:34:41.734Z,100429.92
2019-05-13T08:37:11.433Z,100430.02
2019-05-13T08:39:42.029Z,100436.05
2019-05-13T08:42:15.841Z,100433.47
2019-05-13T08:44:42.204Z,100433.55
2019-05-13T08:47:12.072Z,100428.55
2019-05-13T08:49:42.534Z,100424.27
2019-05-13T08:52:12.251Z,100419.29
2019-05-13T08:54:41.997Z,100422.80
2019-05-13T08:57:11.895Z,100411.25
2019-05-13T08:59:42.386Z,100407.66
2019-05-13T09:02:11.834Z,100407.81
2019-05-13T09:04:42.181Z,100408.86
2019-05-13T09:07:12.443Z,100402.98
2019-05-13T09:09:42.747Z,100405.22
2019-05-13T09:12:28.132Z,100397.16
2019-05-13T09:14:43.765Z,100401.22
2019-05-13T09:17:12.855Z,100398.93
2019-05-13T09:19:42.237Z,100394.05
2019-05-13T09:22:12.357Z,100387.62
2019-05-13T09:24:42.860Z,100390.25
2019-05-13T09:27:12.309Z,100401.30
2019-05-13T09:29:43.150Z,100398.83
2019-05-13T09:32:12.489Z,100395.28
2019-05-13T09:34:43.426Z,100391.34
2019-05-13T09:37:14.146Z,100386.71
2019-05-13T09:39:44.845Z,100393.05
2019-05-13T09:42:15.545Z,100398.70
2019-05-13T09:44:47.715Z,100394.89
2019-05-13T09:47:21.885Z,100395.97
2019-05-13T09:49:54.559Z,100400.97
2019-05-13T09:52:24.594Z,100399.42
2019-05-13T09:54:55.295Z,100391.06
2019-05-13T09:57:26.171Z,100387.97
2019-05-13T09:59:56.761Z,100394.64
2019-05-13T10:02:27.543Z,100392.17
2019-05-13T10:04:58.314Z,100383.33
2019-05-13T10:07:31.550Z,100381.23
2019-05-13T10:10:01.893Z,100380.14
2019-05-13T10:12:32.145Z,100374.05
2019-05-13T10:15:02.613Z,100375.64
2019-05-13T10:17:32.042Z,100370.45
2019-05-13T10:20:01.151Z,100369.70
2019-05-13T10:22:31.991Z,100382.13
2019-05-13T10:25:02.617Z,100380.80
2019-05-13T10:27:32.787Z,100366.27
2019-05-13T10:30:02.856Z,100368.15
2019-05-13T10:32:32.542Z,100364.84
2019-05-13T10:35:03.537Z,100370.48
2019-05-13T10:37:32.988Z,100360.04
2019-05-13T10:40:02.700Z,100354.14
2019-05-13T10:42:33.049Z,100365.73
2019-05-13T10:45:02.778Z,100376.71
2019-05-13T10:47:32.088Z,100362.79
2019-05-13T10:50:02.820Z,100356.34
2019-05-13T10:52:32.416Z,100355.80
2019-05-13T10:55:02.163Z,100364.94
2019-05-13T10:57:32.435Z,100356.77
2019-05-13T11:00:03.282Z,100368.21
2019-05-13T11:02:32.899Z,100356.14
2019-05-13T11:05:03.216Z,100360.22
2019-05-13T11:07:32.581Z,100354.96
2019-05-13T11:10:02.385Z,100356.70
2019-05-13T11:12:33.504Z,100340.72
2019-05-13T11:15:03.427Z,100352.52
2019-05-13T11:17:33.290Z,100354.45
2019-05-13T11:20:03.502Z,100347.61
2019-05-13T11:22:32.983Z,100347.88
2019-05-13T11:25:02.712Z,100339.89
2019-05-13T11:27:32.496Z,100347.27
2019-05-13T11:30:06.391Z,100337.64
2019-05-13T11:32:34.847Z,100338.70
2019-05-13T11:35:04.247Z,100329.94
2019-05-13T11:37:34.673Z,100343.42
2019-05-13T11:40:03.922Z,100333.41
2019-05-13T11:42:33.383Z,100330.22
2019-05-13T11:45:02.582Z,100333.54
2019-05-13T11:47:32.321Z,100341.21
2019-05-13T11:50:02.483Z,100332.63
2019-05-13T11:52:31.826Z,100333.16
2019-05-13T11:55:02.659Z,100335.34
2019-05-13T11:57:31.768Z,100330.48
2019-05-13T12:00:02.540Z,100330.48
2019-05-13T12:02:32.700Z,100314.59
2019-05-13T12:05:03.888Z,100322.30
2019-05-13T12:07:34.032Z,100322.50
2019-05-13T12:10:05.084Z,100318.73
2019-05-13T12:12:34.780Z,100314.43
2019-05-13T12:15:26.487Z,100315.23
2019-05-13T12:17:35.923Z,100308.50
2019-05-13T12:20:05.378Z,100306.14
2019-05-13T12:22:34.513Z,100306.75
2019-05-13T12:25:03.940Z,100313.18
2019-05-13T12:27:32.934Z,100306.81
2019-05-13T12:30:03.249Z,100296.00
2019-05-13T12:32:32.816Z,100302.30
2019-05-13T12:35:03.874Z,100302.38
2019-05-13T12:37:33.618Z,100299.09
2019-05-13T12:40:03.724Z,100308.16
2019-05-13T12:42:33.950Z,100296.42
2019-05-13T12:45:09.904Z,100298.37
2019-05-13T12:47:34.789Z,100295.71
2019-05-13T12:50:04.088Z,100290.22
2019-05-13T12:52:33.331Z,100289.52
2019-05-13T12:55:03.534Z,100290.06
2019-05-13T12:57:32.638Z,100286.88
2019-05-13T13:00:02.739Z,100290.39
2019-05-13T13:02:33.807Z,100292.47
2019-05-13T13:05:15.742Z,100283.59
2019-05-13T13:07:40.833Z,100286.50
2019-05-13T13:10:04.294Z,100280.11
2019-05-13T13:12:36.179Z,100276.10
2019-05-13T13:15:31.861Z,100272.39
2019-05-13T13:17:35.117Z,100269.17
2019-05-13T13:20:09.054Z,100269.98
2019-05-13T13:22:36.308Z,100266.69
2019-05-13T13:25:06.394Z,100266.34
2019-05-13T13:28:04.051Z,100262.94
2019-05-13T13:30:08.641Z,100256.41
2019-05-13T13:32:38.124Z,100258.45
2019-05-13T13:35:07.955Z,100259.59
2019-05-13T13:37:37.545Z,100250.50
2019-05-13T13:40:07.024Z,100244.67
2019-05-13T13:42:37.030Z,100238.03
2019-05-13T13:45:06.502Z,100244.20
2019-05-13T13:47:35.660Z,100239.74
2019-05-13T13:50:05.185Z,100242.34
2019-05-13T13:52:34.299Z,100249.67
2019-05-13T13:55:08.592Z,100245.77
2019-05-13T13:57:34.381Z,100259.72
2019-05-13T14:00:34.681Z,100256.09
2019-05-13T14:02:37.045Z,100247.77
2019-05-13T14:05:07.152Z,100236.50
2019-05-13T14:07:38.930Z,100233.65
2019-05-13T14:10:07.454Z,100235.62
2019-05-13T14:12:37.372Z,100222.02
2019-05-13T14:15:08.716Z,100224.27
2019-05-13T14:17:38.060Z,100216.77
2019-05-13T14:20:07.353Z,100218.02
2019-05-13T14:22:36.499Z,100214.05
2019-05-13T14:25:06.206Z,100213.16
2019-05-13T14:27:35.522Z,100202.69
2019-05-13T14:30:05.455Z,100203.25
2019-05-13T14:32:34.709Z,100207.16
2019-05-13T14:35:03.958Z,100204.33
2019-05-13T14:37:33.419Z,100199.48
2019-05-13T14:40:02.691Z,100205.41
2019-05-13T14:42:32.427Z,100204.89
2019-05-13T14:45:02.101Z,100200.41
2019-05-13T14:47:32.120Z,100197.77
2019-05-13T14:50:02.115Z,100195.27
2019-05-13T14:52:32.312Z,100200.47
2019-05-13T14:55:02.331Z,100207.94
2019-05-13T14:57:32.253Z,100202.80
2019-05-13T15:00:02.600Z,100199.77
2019-05-13T15:02:35.334Z,100200.02
2019-05-13T15:05:02.990Z,100202.02
2019-05-13T15:07:32.387Z,100200.31
2019-05-13T15:10:02.489Z,100201.66
2019-05-13T15:12:32.528Z,100201.22
2019-05-13T15:15:03.016Z,100203.60
2019-05-13T15:17:36.290Z,100193.52
2019-05-13T15:20:06.105Z,100184.23
2019-05-13T15:22:35.484Z,100191.36
2019-05-13T15:25:05.098Z,100193.65
2019-05-13T15:27:34.419Z,100198.08
2019-05-13T15:30:16.819Z,100194.67
2019-05-13T15:32:35.148Z,100197.52
2019-05-13T15:35:05.808Z,100198.97
2019-05-13T15:37:35.094Z,100190.88
2019-05-13T15:40:06.221Z,100190.88
2019-05-13T15:42:35.699Z,100185.16
2019-05-13T15:45:05.434Z,100187.43
2019-05-13T15:47:34.554Z,100178.66
2019-05-13T15:50:03.703Z,100184.64
2019-05-13T15:52:32.751Z,100177.14
2019-05-13T15:55:01.809Z,100176.73
2019-05-13T15:57:32.491Z,100176.81
2019-05-13T16:00:02.062Z,100178.56
2019-05-13T16:02:31.493Z,100187.04
2019-05-13T16:05:04.820Z,100181.18
2019-05-13T16:07:33.078Z,100185.33
2019-05-13T16:10:02.135Z,100175.14
2019-05-13T16:12:32.996Z,100170.55
2019-05-13T16:15:02.328Z,100178.23
2019-05-13T16:17:41.036Z,100170.93
2019-05-13T16:20:02.707Z,100179.61
2019-05-13T16:22:31.710Z,100176.59
2019-05-13T16:25:01.653Z,100178.30
2019-05-13T16:27:31.852Z,100177.09
2019-05-13T16:30:02.448Z,100171.61
2019-05-13T16:32:32.997Z,100177.02
2019-05-13T16:35:02.994Z,100176.08
2019-05-13T16:37:32.121Z,100176.73
2019-05-13T16:40:03.087Z,100171.58
2019-05-13T16:42:32.120Z,100172.63
2019-05-13T16:45:01.340Z,100163.25
2019-05-13T16:47:33.903Z,100170.81
2019-05-13T16:50:05.569Z,100163.20
2019-05-13T16:52:34.786Z,100171.52
2019-05-13T16:55:03.893Z,100176.61
2019-05-13T16:57:33.237Z,100181.77
2019-05-13T17:00:02.634Z,100183.66
2019-05-13T17:02:33.164Z,100183.83
2019-05-13T17:05:02.627Z,100186.82
2019-05-13T17:07:32.406Z,100188.66
2019-05-13T17:10:03.707Z,100186.29
2019-05-13T17:12:33.258Z,100180.39
2019-05-13T17:15:02.729Z,100180.33
2019-05-13T17:17:33.607Z,100188.22
2019-05-13T17:20:02.799Z,100176.19
2019-05-13T17:22:32.937Z,100189.89
2019-05-13T17:25:02.662Z,100185.70
2019-05-13T17:27:33.073Z,100186.58
2019-05-13T17:30:03.123Z,100192.66
2019-05-13T17:32:33.291Z,100187.08
2019-05-13T17:35:02.547Z,100192.80
2019-05-13T17:37:32.177Z,100182.38
2019-05-13T17:40:02.099Z,100182.17
2019-05-13T17:42:32.230Z,100189.70
2019-05-13T17:45:02.428Z,100181.26
2019-05-13T17:47:33.072Z,100185.74
2019-05-13T17:50:02.628Z,100175.42
2019-05-13T17:52:31.841Z,100186.13
2019-05-13T17:55:01.230Z,100182.49
2019-05-13T17:57:32.084Z,100186.25
2019-05-13T18:00:01.133Z,100185.80
2019-05-13T18:02:31.446Z,100190.66
2019-05-13T18:05:02.111Z,100184.72
2019-05-13T18:07:32.138Z,100181.47
2019-05-13T18:10:01.690Z,100174.82
2019-05-13T18:12:32.359Z,100169.27
2019-05-13T18:15:02.480Z,100168.56
2019-05-13T18:17:31.735Z,100168.58
2019-05-13T18:20:02.648Z,100171.70
2019-05-13T18:22:31.620Z,100181.64
2019-05-13T18:25:02.579Z,100184.66
2019-05-13T18:27:32.445Z,100181.53
2019-05-13T18:30:02.291Z,100187.31
2019-05-13T18:32:32.077Z,100189.50
2019-05-13T18:35:01.705Z,100190.83
2019-05-13T18:37:33.224Z,100185.77
2019-05-13T18:40:02.659Z,100183.23
2019-05-13T18:42:33.208Z,100190.31
2019-05-13T18:45:02.458Z,100193.71
2019-05-13T18:47:32.830Z,100199.73
2019-05-13T18:50:02.426Z,100195.39
2019-05-13T18:52:31.509Z,100199.87
2019-05-13T18:55:02.040Z,100195.63
2019-05-13T18:57:33.158Z,100190.30
2019-05-13T19:00:02.620Z,100185.13
2019-05-13T19:02:32.123Z,100187.52
2019-05-13T19:05:01.613Z,100187.42
2019-05-13T19:07:31.608Z,100185.58
2019-05-13T19:10:02.567Z,100187.89
2019-05-13T19:12:31.840Z,100183.90
2019-05-13T19:15:02.407Z,100189.33
2019-05-13T19:17:32.363Z,100183.55
2019-05-13T19:20:01.732Z,100180.88
2019-05-13T19:22:34.500Z,100182.45
2019-05-13T19:25:04.121Z,100183.55
2019-05-13T19:27:33.674Z,100180.25
2019-05-13T19:30:02.678Z,100175.67
2019-05-13T19:32:32.514Z,100178.20
2019-05-13T19:35:02.553Z,100188.12
2019-05-13T19:37:32.500Z,100189.67
2019-05-13T19:40:01.634Z,100193.77
2019-05-13T19:42:31.509Z,100197.52
2019-05-13T19:45:01.900Z,100207.53
2019-05-13T19:47:32.740Z,100211.16
2019-05-13T19:50:03.068Z,100214.70
2019-05-13T19:52:33.893Z,100204.91
2019-05-13T19:55:03.097Z,100214.47
2019-05-13T19:57:33.199Z,100226.91
2019-05-13T20:00:02.364Z,100219.81
2019-05-13T20:02:32.203Z,100222.20
2019-05-13T20:05:01.383Z,100223.44
2019-05-13T20:07:31.843Z,100226.45
2019-05-13T20:10:02.839Z,100233.84
2019-05-13T20:12:32.088Z,100232.31
2019-05-13T20:15:01.829Z,100241.74
2019-05-13T20:17:32.108Z,100240.54
2019-05-13T20:20:02.225Z,100233.03
2019-05-13T20:22:33.778Z,100217.19
2019-05-13T20:25:03.160Z,100225.28
2019-05-13T20:27:34.153Z,100220.20
2019-05-13T20:30:03.288Z,100219.21
2019-05-13T20:32:32.485Z,100215.22
2019-05-13T20:35:02.263Z,100201.45
2019-05-13T20:37:32.176Z,100195.39
2019-05-13T20:40:02.292Z,100182.47
2019-05-13T20:42:31.916Z,100175.55
2019-05-13T20:45:02.438Z,100164.69
2019-05-13T20:47:33.443Z,100161.78
2019-05-13T20:50:04.877Z,100161.19
2019-05-13T20:52:33.916Z,100152.98
2019-05-13T20:55:03.151Z,100147.28
2019-05-13T20:57:32.445Z,100150.69
2019-05-13T21:00:02.414Z,100156.84
2019-05-13T21:02:32.089Z,100164.34
2019-05-13T21:05:01.866Z,100164.23
2019-05-13T21:07:32.138Z,100157.19
2019-05-13T21:10:05.096Z,100157.06
2019-05-13T21:12:35.324Z,100151.77
2019-05-13T21:15:04.920Z,100154.89
2019-05-13T21:17:33.904Z,100151.05
2019-05-13T21:20:18.239Z,100152.36
2019-05-13T21:22:34.054Z,100143.05
2019-05-13T21:25:03.161Z,100135.17
2019-05-13T21:27:32.327Z,100135.16
2019-05-13T21:30:01.439Z,100124.42
2019-05-13T21:32:30.739Z,100123.08
2019-05-13T21:35:01.737Z,100115.68
2019-05-13T21:37:31.691Z,100106.87
2019-05-13T21:40:01.063Z,100114.70
2019-05-13T21:42:32.135Z,100105.83
2019-05-13T21:45:01.886Z,100107.30
2019-05-13T21:47:31.356Z,100103.88
2019-05-13T21:50:02.212Z,100101.56
2019-05-13T21:52:32.340Z,100103.59
2019-05-13T21:55:01.944Z,100102.34
2019-05-13T21:57:34.559Z,100107.84
2019-05-13T22:00:08.766Z,100099.73
2019-05-13T22:02:40.682Z,100108.63
2019-05-13T22:05:11.652Z,100103.33
2019-05-13T22:07:42.073Z,100104.19
2019-05-13T22:10:11.745Z,100106.13
2019-05-13T22:12:43.562Z,100112.67
2019-05-13T22:15:18.652Z,100104.89
2019-05-13T22:17:51.262Z,100106.71
2019-05-13T22:20:21.667Z,100100.57
2019-05-13T22:22:52.031Z,100105.41
2019-05-13T22:25:21.432Z,100108.78
2019-05-13T22:27:51.881Z,100104.08
2019-05-13T22:30:21.368Z,100098.42
2019-05-13T22:32:52.314Z,100084.16
2019-05-13T22:35:22.182Z,100080.89
2019-05-13T22:37:51.629Z,100078.46
2019-05-13T22:40:21.891Z,100077.47
2019-05-13T22:42:56.764Z,100073.98
2019-05-13T22:45:23.233Z,100069.88
2019-05-13T22:47:52.532Z,100075.40
2019-05-13T22:50:21.921Z,100074.54
2019-05-13T22:52:51.853Z,100074.79
2019-05-13T22:55:21.899Z,100070.31
2019-05-13T22:57:51.131Z,100068.63
2019-05-13T23:00:22.382Z,100067.41
2019-05-13T23:02:52.514Z,100064.87
2019-05-13T23:05:22.172Z,100061.00
2019-05-13T23:07:52.087Z,100061.36
2019-05-13T23:10:22.572Z,100055.16
2019-05-13T23:12:52.902Z,100055.64
2019-05-13T23:15:22.270Z,100059.47
2019-05-13T23:17:52.012Z,100058.36
2019-05-13T23:20:21.368Z,100058.36
2019-05-13T23:22:51.929Z,100061.52
2019-05-13T23:25:21.536Z,100055.81
2019-05-13T23:27:51.295Z,100061.98
2019-05-13T23:30:21.010Z,100062.09
2019-05-13T23:32:51.786Z,100059.08
2019-05-13T23:35:21.725Z,100051.23
2019-05-13T23:37:51.108Z,100047.47
2019-05-13T23:40:20.147Z,100040.56
2019-05-13T23:42:51.607Z,100036.66
2019-05-13T23:45:21.804Z,100037.80
2019-05-13T23:47:52.323Z,100034.84
2019-05-13T23:50:21.884Z,100027.57
2019-05-13T23:52:51.379Z,100021.98
2019-05-13T23:55:22.474Z,100018.83
2019-05-13T23:57:52.523Z,100024.73
